SECU

Mariscal Lamar Airport

Airport
ICAO code
SECU
IATA Code
CUE
Summary
ICAO Region
CARSAM
ICAO Territory
Location

, Azuay

Serving
Cuenca
Elevation
8306 ft
Coordinates
2° 53' 22" S , 78° 59' 4" W
Metar
Observation
SECU 271100Z 20002KT 9999 FEW040 06/06 Q1027
Station
Cuenca / Mariscal Lamar
Date/Time
2022-09-27 11:00:00
Wind direction
200°
Wind speed
02 kts
Lowest cloud amount
few clouds
Temperature
6°C
Dew point
6°C
Humidity
100%
QNH
1027 hPa
Weather condition
n/a

Runways

Designator Length Width Surface Rops
5/23 1900 36 ASP No/No

Airport map

Aerial View

SKYbrary Partners:

Safety knowledge contributed by: